Main page
METAR-TAF:

METAR-TAF

Airports :

Šiauliai, Lithuania

Šiauliai International Airport

latitude: 55-53-38N, longitude: 023-23-42E, elevation: 135 m

Current weather observation

The report was made 15 minutes ago, at 02:20 UTC
Wind 7 kt from the North
Temperature 15°C
Humidity 94%
Pressure 1001 hPa
Visibility 10 km or more
Few clouds at a height of 3000 ft
Broken clouds at a height of 4000 ft

METAR: EYSA 260220Z 01007KT 9999 FEW030 BKN040 15/14 Q1001 BLU TEMPO BKN023 WHT

Time: 05:35 (02:35 UTC)

Forecast

The report was made 3 hours and 35 minutes ago, at 23:00 UTC
Forecast valid from 26 at 00 UTC to 26 at 09 UTC
Wind 10 kt from the Northeast
Broken clouds at a height of 2000 ft
Temporary
from 26 at 03 UTC to 26 at 09 UTC
Visibility: 3000 m
Broken clouds at a height of 300 ft
Broken clouds at a height of 1500 ft, Cumulonimbus.
rain showers, mist

TAF: EYSA 252300Z 2600/2609 04010KT BKN020 TEMPO 2603/2609 3000 SHRA BR BKN003 BKN015CB

Weather observations and forecasts of more than 4000 airports (METAR and TAF reports).

The available stations are represented by yellow and red dots on the map.

Hover mouse over dot to see the name of the station.

Then click to see weather observations and forecasts.

To change the map : click on the green buttons with a black cross to zoom in, on the green button with a dash to zoom out, or on the green arrows for adjacent maps.


METAR-TAF: